createdAt,value
2023-06-26T00:01:57.158Z,100437.94
2023-06-26T00:04:25.220Z,100438.98
2023-06-26T00:06:53.161Z,100434.89
2023-06-26T00:09:21.120Z,100434.56
2023-06-26T00:11:49.128Z,100435.95
2023-06-26T00:14:17.052Z,100435.83
2023-06-26T00:16:45.038Z,100432.98
2023-06-26T00:19:12.888Z,100434.55
2023-06-26T00:21:40.788Z,100436.80
2023-06-26T00:24:08.839Z,100447.23
2023-06-26T00:26:36.809Z,100446.76
2023-06-26T00:29:04.713Z,100444.66
2023-06-26T00:31:32.890Z,100445.40
2023-06-26T00:34:00.816Z,100447.67
2023-06-26T00:36:28.949Z,100445.32
2023-06-26T00:38:56.959Z,100442.13
2023-06-26T00:41:24.762Z,100439.55
2023-06-26T00:43:52.795Z,100438.40
2023-06-26T00:46:20.759Z,100441.02
2023-06-26T00:48:50.351Z,100441.23
2023-06-26T00:51:18.442Z,100445.89
2023-06-26T00:53:46.710Z,100443.85
2023-06-26T00:56:15.499Z,100442.52
2023-06-26T00:58:43.469Z,100438.69
2023-06-26T01:01:15.541Z,100433.76
2023-06-26T01:03:47.092Z,100431.77
2023-06-26T01:06:17.003Z,100432.63
2023-06-26T01:08:46.298Z,100429.73
2023-06-26T01:11:15.092Z,100428.44
2023-06-26T01:13:47.263Z,100428.48
2023-06-26T01:16:20.842Z,100427.17
2023-06-26T01:18:50.094Z,100419.68
2023-06-26T01:21:19.762Z,100421.92
2023-06-26T01:23:56.843Z,100419.23
2023-06-26T01:26:28.507Z,100418.55
2023-06-26T01:28:58.516Z,100413.26
2023-06-26T01:31:28.978Z,100413.30
2023-06-26T01:34:00.192Z,100414.20
2023-06-26T01:36:28.929Z,100413.42
2023-06-26T01:38:56.841Z,100411.77
2023-06-26T01:41:25.412Z,100412.48
2023-06-26T01:44:14.687Z,100409.41
2023-06-26T01:46:54.753Z,100407.07
2023-06-26T01:49:28.850Z,100402.50
2023-06-26T01:52:04.308Z,100399.46
2023-06-26T01:54:36.968Z,100399.14
2023-06-26T01:57:06.785Z,100395.77
2023-06-26T01:59:35.556Z,100396.98
2023-06-26T02:02:03.542Z,100400.61
2023-06-26T02:04:31.408Z,100393.95
2023-06-26T02:06:59.238Z,100397.89
2023-06-26T02:09:27.445Z,100399.60
2023-06-26T02:11:55.305Z,100396.52
2023-06-26T02:14:23.172Z,100395.17
2023-06-26T02:16:51.136Z,100393.33
2023-06-26T02:19:22.951Z,100391.67
2023-06-26T02:21:51.035Z,100388.63
2023-06-26T02:24:18.925Z,100388.98
2023-06-26T02:26:47.261Z,100382.66
2023-06-26T02:29:15.122Z,100385.44
2023-06-26T02:31:43.337Z,100383.08
2023-06-26T02:34:11.403Z,100379.16
2023-06-26T02:36:39.337Z,100377.44
2023-06-26T02:39:07.301Z,100376.95
2023-06-26T02:41:35.166Z,100380.23
2023-06-26T02:44:03.237Z,100381.45
2023-06-26T02:46:31.135Z,100384.88
2023-06-26T02:48:59.074Z,100390.02
2023-06-26T02:51:26.840Z,100389.84
2023-06-26T02:53:54.800Z,100394.64
2023-06-26T02:56:22.602Z,100389.52
2023-06-26T02:58:50.535Z,100392.30
2023-06-26T03:01:18.775Z,100389.90
2023-06-26T03:03:48.390Z,100389.73
2023-06-26T03:06:16.623Z,100391.78
2023-06-26T03:08:44.555Z,100390.23
2023-06-26T03:11:12.525Z,100387.63
2023-06-26T03:13:40.390Z,100385.91
2023-06-26T03:16:08.305Z,100385.37
2023-06-26T03:18:36.226Z,100384.32
2023-06-26T03:21:04.298Z,100385.16
2023-06-26T03:23:32.916Z,100383.27
2023-06-26T03:26:00.859Z,100387.32
2023-06-26T03:28:28.859Z,100385.73
2023-06-26T03:30:56.837Z,100382.77
2023-06-26T03:33:24.976Z,100385.96
2023-06-26T03:35:53.488Z,100385.22
2023-06-26T03:38:25.040Z,100385.02
2023-06-26T03:40:53.352Z,100386.52
2023-06-26T03:43:21.184Z,100389.70
2023-06-26T03:45:49.119Z,100391.02
2023-06-26T03:48:17.087Z,100389.58
2023-06-26T03:50:46.801Z,100390.36
2023-06-26T03:53:14.767Z,100388.58
2023-06-26T03:55:42.719Z,100387.48
2023-06-26T03:58:10.716Z,100385.48
2023-06-26T04:00:38.969Z,100387.27
2023-06-26T04:03:06.964Z,100388.20
2023-06-26T04:05:35.106Z,100388.63
2023-06-26T04:08:03.194Z,100387.50
2023-06-26T04:10:31.157Z,100387.71
2023-06-26T04:12:59.007Z,100386.88
2023-06-26T04:15:26.789Z,100385.37
2023-06-26T04:17:55.046Z,100390.53
2023-06-26T04:20:23.132Z,100390.90
2023-06-26T04:22:51.092Z,100391.41
2023-06-26T04:25:19.064Z,100386.64
2023-06-26T04:27:46.929Z,100389.40
2023-06-26T04:30:15.073Z,100391.10
2023-06-26T04:32:42.946Z,100389.76
2023-06-26T04:35:12.577Z,100392.70
2023-06-26T04:37:40.439Z,100391.37
2023-06-26T04:40:11.000Z,100390.00
2023-06-26T04:42:39.456Z,100387.58
2023-06-26T04:45:08.209Z,100386.71
2023-06-26T04:47:36.273Z,100386.22
2023-06-26T04:50:04.375Z,100387.91
2023-06-26T04:52:32.375Z,100391.35
2023-06-26T04:55:00.320Z,100387.21
2023-06-26T04:57:28.278Z,100385.17
2023-06-26T04:59:56.261Z,100386.27
2023-06-26T05:02:24.304Z,100387.53
2023-06-26T05:04:52.392Z,100385.27
2023-06-26T05:07:20.775Z,100381.16
2023-06-26T05:09:48.739Z,100379.94
2023-06-26T05:12:16.702Z,100383.67
2023-06-26T05:14:44.769Z,100382.27
2023-06-26T05:17:12.663Z,100382.23
2023-06-26T05:19:40.535Z,100383.48
2023-06-26T05:22:09.264Z,100378.27
2023-06-26T05:24:38.819Z,100378.80
2023-06-26T05:27:07.280Z,100380.01
2023-06-26T05:29:38.912Z,100377.35
2023-06-26T05:32:08.471Z,100377.90
2023-06-26T05:34:36.871Z,100375.36
2023-06-26T05:37:06.152Z,100378.16
2023-06-26T05:39:34.313Z,100376.26
2023-06-26T05:42:02.648Z,100376.65
2023-06-26T05:44:30.551Z,100375.52
2023-06-26T05:46:58.542Z,100375.55
2023-06-26T05:49:26.393Z,100373.08
2023-06-26T05:51:54.664Z,100374.52
2023-06-26T05:54:23.864Z,100374.02
2023-06-26T05:57:00.487Z,100370.11
2023-06-26T05:59:29.628Z,100365.21
2023-06-26T06:01:57.538Z,100367.23
2023-06-26T06:04:25.974Z,100366.11
2023-06-26T06:06:53.880Z,100365.81
2023-06-26T06:09:21.744Z,100365.77
2023-06-26T06:11:49.772Z,100361.73
2023-06-26T06:14:17.740Z,100365.81
2023-06-26T06:16:45.610Z,100361.42
2023-06-26T06:19:14.967Z,100359.09
2023-06-26T06:21:44.423Z,100359.58
2023-06-26T06:24:12.328Z,100358.73
2023-06-26T06:26:40.274Z,100353.05
2023-06-26T06:29:08.174Z,100358.08
2023-06-26T06:31:36.123Z,100360.25
2023-06-26T06:34:04.164Z,100361.20
2023-06-26T06:36:32.547Z,100354.35
2023-06-26T06:39:00.412Z,100354.91
2023-06-26T06:41:28.380Z,100358.27
2023-06-26T06:43:56.447Z,100360.30
2023-06-26T06:46:24.620Z,100354.73
2023-06-26T06:48:52.693Z,100354.06
2023-06-26T06:51:20.607Z,100351.86
2023-06-26T06:53:48.542Z,100351.85
2023-06-26T06:56:16.495Z,100354.92
2023-06-26T06:58:44.665Z,100353.98
2023-06-26T07:01:12.779Z,100356.18
2023-06-26T07:03:41.844Z,100358.85
2023-06-26T07:06:10.318Z,100360.99
2023-06-26T07:08:38.229Z,100359.71
2023-06-26T07:11:06.146Z,100362.27
2023-06-26T07:13:34.112Z,100355.17
2023-06-26T07:16:02.019Z,100355.23
2023-06-26T07:18:30.081Z,100354.17
2023-06-26T07:20:58.008Z,100356.48
2023-06-26T07:23:25.911Z,100355.19
2023-06-26T07:25:54.253Z,100356.52
2023-06-26T07:28:22.129Z,100356.22
2023-06-26T07:30:50.293Z,100355.73
2023-06-26T07:33:18.164Z,100356.13
2023-06-26T07:35:46.125Z,100353.58
2023-06-26T07:38:14.097Z,100351.05
2023-06-26T07:40:42.103Z,100350.37
2023-06-26T07:43:10.054Z,100353.11
2023-06-26T07:45:37.999Z,100348.70
2023-06-26T07:48:07.569Z,100347.62
2023-06-26T07:50:35.895Z,100351.94
2023-06-26T07:53:04.184Z,100351.61
2023-06-26T07:55:32.601Z,100355.01
2023-06-26T07:58:00.982Z,100355.64
2023-06-26T08:00:28.998Z,100349.70
2023-06-26T08:02:57.079Z,100349.96
2023-06-26T08:05:25.660Z,100348.36
2023-06-26T08:07:53.915Z,100349.80
2023-06-26T08:10:21.780Z,100343.64
2023-06-26T08:12:51.800Z,100343.71
2023-06-26T08:15:19.766Z,100348.60
2023-06-26T08:17:48.398Z,100346.09
2023-06-26T08:20:16.728Z,100348.17
2023-06-26T08:22:44.995Z,100341.05
2023-06-26T08:25:12.999Z,100340.98
2023-06-26T08:27:40.867Z,100343.27
2023-06-26T08:30:09.567Z,100340.20
2023-06-26T08:32:37.708Z,100337.23
2023-06-26T08:35:08.132Z,100335.83
2023-06-26T08:37:36.096Z,100336.10
2023-06-26T08:40:05.415Z,100330.13
2023-06-26T08:42:33.467Z,100333.19
2023-06-26T08:45:02.513Z,100336.11
2023-06-26T08:47:36.317Z,100335.81
2023-06-26T08:50:13.794Z,100334.02
2023-06-26T08:52:58.010Z,100335.17
2023-06-26T08:55:30.069Z,100332.23
2023-06-26T08:57:59.456Z,100330.07
2023-06-26T09:00:27.542Z,100332.77
2023-06-26T09:02:57.593Z,100324.94
2023-06-26T09:05:28.522Z,100328.02
2023-06-26T09:07:59.105Z,100327.04
2023-06-26T09:10:27.702Z,100324.80
2023-06-26T09:12:59.564Z,100322.67
2023-06-26T09:15:27.854Z,100321.34
2023-06-26T09:18:00.055Z,100324.59
2023-06-26T09:20:32.279Z,100320.98
2023-06-26T09:23:00.654Z,100315.86
2023-06-26T09:25:29.356Z,100314.48
2023-06-26T09:27:58.286Z,100313.88
2023-06-26T09:30:26.547Z,100316.74
2023-06-26T09:32:55.874Z,100314.06
2023-06-26T09:35:25.038Z,100316.98
2023-06-26T09:37:53.926Z,100317.19
2023-06-26T09:40:22.254Z,100315.95
2023-06-26T09:42:50.903Z,100312.02
2023-06-26T09:45:20.737Z,100311.45
2023-06-26T09:47:49.268Z,100312.20
2023-06-26T09:50:25.392Z,100304.94
2023-06-26T09:52:54.025Z,100308.72
2023-06-26T09:55:23.889Z,100310.05
2023-06-26T09:57:53.092Z,100308.34
2023-06-26T10:00:21.919Z,100308.00
2023-06-26T10:02:50.399Z,100306.34
2023-06-26T10:05:19.398Z,100303.56
2023-06-26T10:07:49.229Z,100306.98
2023-06-26T10:10:18.593Z,100298.45
2023-06-26T10:12:50.296Z,100294.72
2023-06-26T10:15:20.711Z,100289.48
2023-06-26T10:17:50.765Z,100292.56
2023-06-26T10:20:19.804Z,100292.90
2023-06-26T10:22:49.013Z,100290.64
2023-06-26T10:25:22.610Z,100287.66
2023-06-26T10:27:57.040Z,100281.77
2023-06-26T10:30:34.601Z,100279.21
2023-06-26T10:33:04.685Z,100269.41
2023-06-26T10:35:33.444Z,100269.36
2023-06-26T10:38:05.805Z,100274.73
2023-06-26T10:40:50.048Z,100263.92
2023-06-26T10:43:19.873Z,100262.25
2023-06-26T10:46:11.678Z,100265.17
2023-06-26T10:49:01.279Z,100264.20
2023-06-26T10:51:31.897Z,100259.86
2023-06-26T10:54:01.074Z,100257.77
2023-06-26T10:56:57.933Z,100258.23
2023-06-26T10:59:31.406Z,100257.06
2023-06-26T11:02:10.003Z,100256.19
2023-06-26T11:04:47.295Z,100248.95
2023-06-26T11:07:26.744Z,100251.20
2023-06-26T11:10:02.880Z,100244.06
2023-06-26T11:12:43.871Z,100244.46
2023-06-26T11:15:20.794Z,100239.26
2023-06-26T11:17:49.827Z,100236.65
2023-06-26T11:20:19.253Z,100235.00
2023-06-26T11:22:48.612Z,100234.96
2023-06-26T11:25:16.642Z,100232.07
2023-06-26T11:27:46.062Z,100231.98
2023-06-26T11:30:25.609Z,100234.48
2023-06-26T11:32:54.429Z,100234.82
2023-06-26T11:35:31.515Z,100227.80
2023-06-26T11:38:05.556Z,100229.86
2023-06-26T11:40:40.520Z,100233.00
2023-06-26T11:43:09.177Z,100232.45
2023-06-26T11:45:39.485Z,100229.29
2023-06-26T11:48:08.896Z,100220.53
2023-06-26T11:53:09.025Z,100221.12
2023-06-26T11:55:43.812Z,100217.21
2023-06-26T11:58:11.948Z,100213.02
2023-06-26T12:00:45.128Z,100213.53
2023-06-26T12:03:13.664Z,100209.01
2023-06-26T12:05:42.396Z,100208.44
2023-06-26T12:08:10.556Z,100207.50
2023-06-26T12:10:39.238Z,100195.23
2023-06-26T12:13:09.271Z,100193.45
2023-06-26T12:15:37.654Z,100192.45
2023-06-26T12:18:09.981Z,100189.25
2023-06-26T12:20:42.112Z,100189.82
2023-06-26T12:23:14.790Z,100189.95
2023-06-26T12:25:42.938Z,100186.38
2023-06-26T12:28:19.009Z,100185.02
2023-06-26T12:30:48.304Z,100187.55
2023-06-26T12:33:17.395Z,100188.11
2023-06-26T12:35:46.907Z,100180.28
2023-06-26T12:38:16.661Z,100173.92
2023-06-26T12:40:48.388Z,100179.35
2023-06-26T12:43:25.118Z,100175.48
2023-06-26T12:45:58.949Z,100174.66
2023-06-26T12:48:48.626Z,100171.14
2023-06-26T12:51:18.129Z,100169.48
2023-06-26T12:53:46.197Z,100163.71
2023-06-26T12:56:14.176Z,100161.41
2023-06-26T12:58:42.064Z,100160.91
2023-06-26T13:01:15.776Z,100161.39
2023-06-26T13:03:44.081Z,100162.81
2023-06-26T13:06:13.519Z,100162.20
2023-06-26T13:08:41.525Z,100155.70
2023-06-26T13:11:09.607Z,100156.50
2023-06-26T13:13:37.943Z,100151.83
2023-06-26T13:16:06.587Z,100148.54
2023-06-26T13:18:34.806Z,100144.55
2023-06-26T13:21:03.088Z,100142.00
2023-06-26T13:23:31.261Z,100135.50
2023-06-26T13:26:01.581Z,100127.45
2023-06-26T13:28:30.360Z,100126.38
2023-06-26T13:30:59.078Z,100128.16
2023-06-26T13:33:27.338Z,100129.47
2023-06-26T13:35:55.798Z,100132.38
2023-06-26T13:38:27.886Z,100131.79
2023-06-26T13:40:58.408Z,100126.71
2023-06-26T13:43:26.566Z,100120.54
2023-06-26T13:45:55.677Z,100122.14
2023-06-26T13:48:25.727Z,100114.29
2023-06-26T13:50:55.059Z,100108.63
2023-06-26T13:53:23.562Z,100107.91
2023-06-26T13:55:51.636Z,100102.02
2023-06-26T13:58:20.634Z,100099.58
2023-06-26T14:00:50.564Z,100095.86
2023-06-26T14:03:20.399Z,100096.55
2023-06-26T14:05:49.056Z,100092.52
2023-06-26T14:08:18.442Z,100093.77
2023-06-26T14:10:46.375Z,100090.44
2023-06-26T14:13:16.577Z,100088.14
2023-06-26T14:15:44.799Z,100083.50
2023-06-26T14:18:12.867Z,100084.06
2023-06-26T14:20:42.116Z,100083.40
2023-06-26T14:23:12.493Z,100081.05
2023-06-26T14:25:40.688Z,100074.55
2023-06-26T14:28:09.471Z,100073.54
2023-06-26T14:30:37.750Z,100074.04
2023-06-26T14:33:06.164Z,100068.62
2023-06-26T14:35:34.836Z,100061.97
2023-06-26T14:38:03.567Z,100056.05
2023-06-26T14:40:31.869Z,100053.17
2023-06-26T14:43:00.576Z,100045.08
2023-06-26T14:45:29.228Z,100042.40
2023-06-26T14:47:58.266Z,100038.76
2023-06-26T14:50:26.397Z,100037.32
2023-06-26T14:52:54.674Z,100033.17
2023-06-26T14:55:22.948Z,100023.88
2023-06-26T14:57:51.225Z,100023.88
2023-06-26T15:00:20.861Z,100020.83
2023-06-26T15:02:57.283Z,100021.00
2023-06-26T15:05:27.173Z,100018.00
2023-06-26T15:07:55.285Z,100012.04
2023-06-26T15:10:24.159Z,100008.16
2023-06-26T15:12:53.582Z,100003.06
2023-06-26T15:15:22.465Z,99999.92
2023-06-26T15:17:52.699Z,99996.03
2023-06-26T15:20:21.431Z,99995.55
2023-06-26T15:22:49.859Z,99994.23
2023-06-26T15:25:18.152Z,99992.69
2023-06-26T15:27:46.420Z,99991.44
2023-06-26T15:30:15.985Z,99982.66
2023-06-26T15:32:44.276Z,99985.13
2023-06-26T15:35:12.574Z,99983.98
2023-06-26T15:37:40.861Z,99987.33
2023-06-26T15:40:09.980Z,99979.45
2023-06-26T15:42:47.415Z,99977.50
2023-06-26T15:45:19.065Z,99973.86
2023-06-26T15:47:47.501Z,99975.50
2023-06-26T15:50:16.052Z,99967.92
2023-06-26T15:52:44.338Z,99965.44
2023-06-26T15:55:12.703Z,99965.02
2023-06-26T15:57:43.406Z,99961.51
2023-06-26T16:00:13.491Z,99958.08
2023-06-26T16:02:42.162Z,99956.60
2023-06-26T16:05:11.791Z,99955.14
2023-06-26T16:07:55.778Z,99956.18
2023-06-26T16:10:25.261Z,99951.50
2023-06-26T16:12:53.576Z,99951.32
2023-06-26T16:15:21.850Z,99952.91
2023-06-26T16:17:50.208Z,99950.83
2023-06-26T16:20:18.598Z,99947.97
2023-06-26T16:22:46.666Z,99950.36
2023-06-26T16:25:14.749Z,99946.02
2023-06-26T16:27:46.770Z,99943.95
2023-06-26T16:30:15.985Z,99946.16
2023-06-26T16:32:44.250Z,99946.14
2023-06-26T16:35:12.587Z,99942.06
2023-06-26T16:37:40.777Z,99936.02
2023-06-26T16:40:09.799Z,99934.19
2023-06-26T16:42:38.204Z,99935.88
2023-06-26T16:45:07.027Z,99933.68
2023-06-26T16:47:38.615Z,99935.44
2023-06-26T16:50:09.299Z,99938.60
2023-06-26T16:52:37.690Z,99942.54
2023-06-26T16:55:06.270Z,99941.23
2023-06-26T16:57:34.284Z,99944.79
2023-06-26T17:00:07.175Z,99941.81
2023-06-26T17:02:35.610Z,99943.75
2023-06-26T17:05:04.445Z,99942.72
2023-06-26T17:07:32.765Z,99943.74
2023-06-26T17:10:01.063Z,99944.86
2023-06-26T17:12:29.239Z,99949.06
2023-06-26T17:14:57.446Z,99948.20
2023-06-26T17:17:25.694Z,99949.88
2023-06-26T17:19:53.863Z,99948.23
2023-06-26T17:22:22.042Z,99947.13
2023-06-26T17:24:50.302Z,99947.19
2023-06-26T17:27:22.296Z,99948.81
2023-06-26T17:29:50.785Z,99948.38
2023-06-26T17:32:22.053Z,99945.98
2023-06-26T17:34:52.398Z,99945.66
2023-06-26T17:37:28.338Z,99943.67
2023-06-26T17:39:57.140Z,99939.13
2023-06-26T17:42:25.466Z,99935.09
2023-06-26T17:44:53.951Z,99931.97
2023-06-26T17:47:23.022Z,99932.96
2023-06-26T17:49:51.703Z,99933.98
2023-06-26T17:52:20.140Z,99932.17
2023-06-26T17:54:48.477Z,99929.48
2023-06-26T17:57:16.841Z,99930.86
2023-06-26T17:59:45.172Z,99933.00
2023-06-26T18:02:14.206Z,99930.70
2023-06-26T18:04:43.085Z,99926.96
2023-06-26T18:07:13.571Z,99924.19
2023-06-26T18:09:44.173Z,99921.41
2023-06-26T18:12:12.848Z,99923.94
2023-06-26T18:14:41.008Z,99926.39
2023-06-26T18:17:09.316Z,99926.86
2023-06-26T18:19:37.657Z,99927.30
2023-06-26T18:22:06.614Z,99924.08
2023-06-26T18:24:35.241Z,99921.88
2023-06-26T18:27:03.792Z,99921.48
2023-06-26T18:29:32.756Z,99927.44
2023-06-26T18:32:02.674Z,99926.90
2023-06-26T18:34:31.413Z,99926.77
2023-06-26T18:37:00.078Z,99924.85
2023-06-26T18:39:28.756Z,99925.05
2023-06-26T18:41:56.924Z,99924.70
2023-06-26T18:44:25.576Z,99922.24
2023-06-26T18:46:54.015Z,99919.45
2023-06-26T18:49:22.807Z,99920.15
2023-06-26T18:51:51.295Z,99922.46
2023-06-26T18:54:20.032Z,99924.07
2023-06-26T18:56:48.671Z,99922.33
2023-06-26T18:59:18.166Z,99925.17
2023-06-26T19:01:46.778Z,99925.81
2023-06-26T19:04:16.578Z,99919.63
2023-06-26T19:06:45.746Z,99917.48
2023-06-26T19:09:14.494Z,99911.70
2023-06-26T19:11:43.163Z,99917.02
2023-06-26T19:14:14.396Z,99916.19
2023-06-26T19:16:43.540Z,99919.20
2023-06-26T19:19:14.832Z,99916.14
2023-06-26T19:21:44.025Z,99915.80
2023-06-26T19:24:15.535Z,99913.08
2023-06-26T19:26:48.872Z,99910.45
2023-06-26T19:29:17.956Z,99913.15
2023-06-26T19:31:46.646Z,99910.80
2023-06-26T19:34:15.264Z,99912.02
2023-06-26T19:36:44.546Z,99911.19
2023-06-26T19:39:13.470Z,99906.97
2023-06-26T19:41:42.678Z,99901.89
2023-06-26T19:44:11.240Z,99902.94
2023-06-26T19:46:40.000Z,99898.05
2023-06-26T19:49:08.706Z,99897.91
2023-06-26T19:51:37.252Z,99895.70
2023-06-26T19:54:07.061Z,99893.14
2023-06-26T19:56:35.418Z,99888.17
2023-06-26T19:59:04.644Z,99885.63
2023-06-26T20:01:33.572Z,99884.26
2023-06-26T20:04:11.417Z,99885.64
2023-06-26T20:06:40.918Z,99883.39
2023-06-26T20:09:09.814Z,99882.86
2023-06-26T20:11:39.557Z,99881.92
2023-06-26T20:14:10.527Z,99879.89
2023-06-26T20:16:39.453Z,99871.64
2023-06-26T20:19:08.001Z,99867.09
2023-06-26T20:21:42.973Z,99866.39
2023-06-26T20:24:13.980Z,99861.75
2023-06-26T20:26:44.930Z,99860.98
2023-06-26T20:29:19.279Z,99858.33
2023-06-26T20:31:50.413Z,99856.12
2023-06-26T20:34:19.709Z,99855.70
2023-06-26T20:36:48.916Z,99847.13
2023-06-26T20:39:18.564Z,99845.53
2023-06-26T20:41:48.010Z,99844.31
2023-06-26T20:44:17.680Z,99846.52
2023-06-26T20:46:46.647Z,99845.44
2023-06-26T20:49:15.802Z,99844.55
2023-06-26T20:51:45.042Z,99843.85
2023-06-26T20:54:14.514Z,99843.44
2023-06-26T20:56:43.208Z,99840.95
2023-06-26T20:59:14.924Z,99841.06
2023-06-26T21:01:48.409Z,99839.57
2023-06-26T21:04:17.220Z,99843.27
2023-06-26T21:06:48.526Z,99847.52
2023-06-26T21:09:17.741Z,99846.48
2023-06-26T21:11:53.015Z,99844.06
2023-06-26T21:14:22.657Z,99843.13
2023-06-26T21:16:51.930Z,99839.71
2023-06-26T21:19:22.525Z,99831.38
2023-06-26T21:21:51.570Z,99833.55
2023-06-26T21:24:23.508Z,99828.83
2023-06-26T21:26:55.815Z,99827.52
2023-06-26T21:29:26.888Z,99833.46
2023-06-26T21:31:55.728Z,99832.74
2023-06-26T21:34:24.391Z,99833.78
2023-06-26T21:36:55.616Z,99837.52
2023-06-26T21:39:23.828Z,99841.70
2023-06-26T21:41:52.110Z,99842.21
2023-06-26T21:44:20.701Z,99843.01
2023-06-26T21:46:49.842Z,99845.92
2023-06-26T21:49:18.247Z,99844.39
2023-06-26T21:51:47.143Z,99841.09
2023-06-26T21:54:16.342Z,99844.34
2023-06-26T21:56:48.393Z,99840.38
2023-06-26T21:59:17.191Z,99838.80
2023-06-26T22:01:46.311Z,99838.30
2023-06-26T22:04:14.854Z,99834.13
2023-06-26T22:06:44.339Z,99831.02
2023-06-26T22:09:13.585Z,99831.98
2023-06-26T22:11:42.380Z,99827.69
2023-06-26T22:14:10.939Z,99827.87
2023-06-26T22:16:39.794Z,99822.86
2023-06-26T22:19:10.121Z,99818.38
2023-06-26T22:21:39.800Z,99812.70
2023-06-26T22:24:08.583Z,99810.23
2023-06-26T22:26:37.961Z,99808.80
2023-06-26T22:29:09.810Z,99808.74
2023-06-26T22:31:39.895Z,99812.90
2023-06-26T22:34:12.807Z,99816.15
2023-06-26T22:36:43.381Z,99817.99
2023-06-26T22:39:12.357Z,99818.09
2023-06-26T22:41:42.652Z,99811.49
2023-06-26T22:44:14.938Z,99804.10
2023-06-26T22:46:44.851Z,99802.20
2023-06-26T22:49:14.188Z,99802.17
2023-06-26T22:51:43.337Z,99795.47
2023-06-26T22:54:13.645Z,99789.95
2023-06-26T22:56:54.460Z,99785.00
2023-06-26T22:59:25.311Z,99782.34
2023-06-26T23:01:57.359Z,99780.45
2023-06-26T23:04:26.714Z,99783.36
2023-06-26T23:06:58.736Z,99775.85
2023-06-26T23:09:34.011Z,99772.89
2023-06-26T23:12:03.292Z,99774.73
2023-06-26T23:14:32.718Z,99775.61
2023-06-26T23:17:05.689Z,99778.15
2023-06-26T23:19:40.575Z,99780.14
2023-06-26T23:22:12.878Z,99782.77
2023-06-26T23:24:44.787Z,99780.38
2023-06-26T23:27:13.838Z,99779.04
2023-06-26T23:29:46.123Z,99779.09
2023-06-26T23:32:16.246Z,99798.35
2023-06-26T23:34:45.047Z,99817.86
2023-06-26T23:37:14.339Z,99825.88
2023-06-26T23:39:45.381Z,99833.61
2023-06-26T23:42:17.161Z,99836.67
2023-06-26T23:44:50.629Z,99839.86
2023-06-26T23:47:20.493Z,99836.27
2023-06-26T23:49:49.400Z,99833.42
2023-06-26T23:52:21.049Z,99834.27
2023-06-26T23:54:52.410Z,99835.30
2023-06-26T23:57:20.279Z,99841.05
2023-06-26T23:59:48.145Z,99840.80
